CDB - Cold Bay

Pirep is a free, collaborative database of all public and private airports located within the United States. All pilots are welcome to contribute, edit, and improve any airport they have local knowledge about, no registration required.
Are you familiar with this airport? Help out other pilots by adding your local knowledge.
Uploaded photos will be licensed under a CC BY-SA 4.0 license. Please only upload photos you have the rights to use.
Tags
Public
Undocu­mented
METAR / TAF
Webcam
Edit Tags
Food
Camping
Lodging
Car Rental
Bicycles
Swimming
Golfing
Fishing
Hot Springs
Museum
Flying Clubs
Airpark
Upcoming Events
No upcoming events. Is anything happening here soon?
*
*
*

Where exactly on/near the airport is this event taking place?

Is there a webpage with more information for this event?

Who should be contacted for more information?

What is this event all about?

Repeat every
Description
Transient Parking
Fuel Location
Landing & Tie-down Fees
Crew Car Availability
Flying Clubs
WiFi Access
Airport Statistics
Location: Cold Bay, AK
Elevation: 99ft
Sectional: Cold Bay
Activation date: Apr 1949
Fuel: 100LL, A (prices)
Runway 15/33: 10,179ft
Runway 08/26: 4,900ft
Access: Open to the public
Current Weather — MVFR
  • Weather data is strictly informational and not for flight planning purposes.
  • METAR
    2024-05-29 10:18:00 AKDT
    Ceiling Wind Temperature Dewpoint Weather Visbility
    1,100ft 140° @ 11kt 42°F 39°F N/A 10SM
    Clouds: Broken @ 1,100ft, Overcast @ 1,900ft
    Raw: PACD 291818Z 14011KT 10SM BKN011 OVC019 06/04 A2963 RMK AO2 T00610044 $
  • TAF
    2024-05-29 10:00:00 AKDT – 2024-05-29 22:00:00 AKDT
    Ceiling Wind Weather Visbility
    5,000ft 150° @ 10kt Showers in vicinity 6SM
    Clouds: Few @ 2,500ft, Broken @ 5,000ft, Overcast @ 6,000ft
    Raw: PACD 291749Z 2918/3018 15010KT P6SM VCSH FEW025 BKN050 OVC060 TEMPO 2918/2922 5SM -RA BKN025 BKN045 OVC060 FM300600 14010KT 5SM -RA OVC007
  • TAF
    2024-05-29 10:00:00 AKDT – 2024-05-29 14:00:00 AKDT
    Ceiling Wind Weather Visbility
    2,500ft ° @ kt Light rain 5SM
    Clouds: Broken @ 2,500ft, Broken @ 4,500ft, Overcast @ 6,000ft
    Raw: PACD 291749Z 2918/3018 15010KT P6SM VCSH FEW025 BKN050 OVC060 TEMPO 2918/2922 5SM -RA BKN025 BKN045 OVC060 FM300600 14010KT 5SM -RA OVC007
  • TAF
    2024-05-29 22:00:00 AKDT – 2024-05-30 10:00:00 AKDT
    Ceiling Wind Weather Visbility
    700ft 140° @ 10kt Light rain 5SM
    Clouds: Overcast @ 700ft
    Raw: PACD 291749Z 2918/3018 15010KT P6SM VCSH FEW025 BKN050 OVC060 TEMPO 2918/2922 5SM -RA BKN025 BKN045 OVC060 FM300600 14010KT 5SM -RA OVC007
Click/tap to add an annotation marker to the map
Direct links to live image URLs will be displayed inline on this page. URLs to separate webpages will be linked to.
URL:
Direct links to live image URLs will be displayed inline on this page. URLs to separate webpages will be linked to.
URL:
Remarks
  • Photocell ops.
  • Clsd to acr ops with more than 30 pax seats excp written ppr - amgr box 97 cold bay ak 99571. arff avbl for part 121 carriers involved in etops with 30 min notice.
  • Snow, ice removal & arpt haz rprtg durg duty hr unless prior arngmt in writing - amgr.
  • Birds invof all rwy apch ends.
  • Brakelock turns na.
Comments
Leave a comment What was your experience like at this airport?